sensor_id;sensor_type;location;lat;lon;timestamp;P1;durP1;ratioP1;P2;durP2;ratioP2
35612;SDS011;22054;51.646;7.078;2022-10-16T00:01:24;8.60;;;5.35;;
35612;SDS011;22054;51.646;7.078;2022-10-16T00:03:54;10.02;;;5.97;;
35612;SDS011;22054;51.646;7.078;2022-10-16T00:06:21;8.32;;;5.43;;
35612;SDS011;22054;51.646;7.078;2022-10-16T00:08:48;13.23;;;7.10;;
35612;SDS011;22054;51.646;7.078;2022-10-16T00:11:16;10.05;;;5.75;;
35612;SDS011;22054;51.646;7.078;2022-10-16T00:13:51;10.23;;;6.00;;
35612;SDS011;22054;51.646;7.078;2022-10-16T00:16:22;8.88;;;5.38;;
35612;SDS011;22054;51.646;7.078;2022-10-16T00:18:48;8.45;;;7.53;;
35612;SDS011;22054;51.646;7.078;2022-10-16T00:21:15;10.00;;;8.57;;
35612;SDS011;22054;51.646;7.078;2022-10-16T00:23:46;9.60;;;8.80;;
35612;SDS011;22054;51.646;7.078;2022-10-16T00:26:17;11.57;;;8.80;;
35612;SDS011;22054;51.646;7.078;2022-10-16T00:28:47;13.35;;;9.27;;
35612;SDS011;22054;51.646;7.078;2022-10-16T00:31:15;10.13;;;9.23;;
35612;SDS011;22054;51.646;7.078;2022-10-16T00:33:44;11.37;;;9.43;;
35612;SDS011;22054;51.646;7.078;2022-10-16T00:36:11;13.18;;;9.57;;
35612;SDS011;22054;51.646;7.078;2022-10-16T00:38:39;11.95;;;10.30;;
35612;SDS011;22054;51.646;7.078;2022-10-16T00:41:06;13.48;;;10.45;;
35612;SDS011;22054;51.646;7.078;2022-10-16T00:43:43;13.15;;;12.02;;
35612;SDS011;22054;51.646;7.078;2022-10-16T00:46:23;13.60;;;12.23;;
35612;SDS011;22054;51.646;7.078;2022-10-16T00:49:12;12.52;;;11.52;;
35612;SDS011;22054;51.646;7.078;2022-10-16T00:51:42;12.43;;;11.48;;
35612;SDS011;22054;51.646;7.078;2022-10-16T00:54:15;13.38;;;12.10;;
35612;SDS011;22054;51.646;7.078;2022-10-16T00:56:48;12.95;;;11.95;;
35612;SDS011;22054;51.646;7.078;2022-10-16T00:59:32;12.40;;;11.40;;
35612;SDS011;22054;51.646;7.078;2022-10-16T01:02:01;12.88;;;11.65;;
35612;SDS011;22054;51.646;7.078;2022-10-16T01:04:31;12.73;;;11.75;;
35612;SDS011;22054;51.646;7.078;2022-10-16T01:12:40;13.68;;;12.57;;
35612;SDS011;22054;51.646;7.078;2022-10-16T01:15:41;13.43;;;12.38;;
35612;SDS011;22054;51.646;7.078;2022-10-16T01:18:17;14.05;;;12.73;;
35612;SDS011;22054;51.646;7.078;2022-10-16T01:20:45;13.32;;;11.65;;
35612;SDS011;22054;51.646;7.078;2022-10-16T01:26:10;13.10;;;12.10;;
35612;SDS011;22054;51.646;7.078;2022-10-16T01:28:50;13.13;;;12.13;;
35612;SDS011;22054;51.646;7.078;2022-10-16T01:31:19;13.95;;;12.95;;
35612;SDS011;22054;51.646;7.078;2022-10-16T01:34:02;14.57;;;13.23;;
35612;SDS011;22054;51.646;7.078;2022-10-16T01:36:39;14.75;;;13.27;;
35612;SDS011;22054;51.646;7.078;2022-10-16T01:42:15;12.85;;;11.55;;
35612;SDS011;22054;51.646;7.078;2022-10-16T01:44:46;13.02;;;11.85;;
35612;SDS011;22054;51.646;7.078;2022-10-16T01:47:15;12.52;;;11.73;;
35612;SDS011;22054;51.646;7.078;2022-10-16T01:49:44;12.88;;;11.32;;
35612;SDS011;22054;51.646;7.078;2022-10-16T01:52:12;12.40;;;11.43;;
35612;SDS011;22054;51.646;7.078;2022-10-16T01:54:45;12.88;;;11.82;;
35612;SDS011;22054;51.646;7.078;2022-10-16T01:57:14;13.38;;;12.27;;
35612;SDS011;22054;51.646;7.078;2022-10-16T01:59:43;12.20;;;11.30;;
35612;SDS011;22054;51.646;7.078;2022-10-16T02:02:13;12.65;;;11.65;;
35612;SDS011;22054;51.646;7.078;2022-10-16T02:07:18;12.02;;;11.13;;
35612;SDS011;22054;51.646;7.078;2022-10-16T02:09:44;11.88;;;11.00;;
35612;SDS011;22054;51.646;7.078;2022-10-16T02:12:22;12.98;;;12.07;;
35612;SDS011;22054;51.646;7.078;2022-10-16T02:14:53;11.65;;;10.82;;
35612;SDS011;22054;51.646;7.078;2022-10-16T02:17:20;14.95;;;11.27;;
35612;SDS011;22054;51.646;7.078;2022-10-16T02:19:47;13.43;;;12.15;;
35612;SDS011;22054;51.646;7.078;2022-10-16T02:22:18;12.50;;;11.18;;
35612;SDS011;22054;51.646;7.078;2022-10-16T02:24:58;11.57;;;10.55;;
35612;SDS011;22054;51.646;7.078;2022-10-16T02:27:33;11.93;;;10.93;;
35612;SDS011;22054;51.646;7.078;2022-10-16T02:30:12;11.40;;;10.55;;
35612;SDS011;22054;51.646;7.078;2022-10-16T02:32:45;11.65;;;10.55;;
35612;SDS011;22054;51.646;7.078;2022-10-16T02:35:13;11.45;;;10.65;;
35612;SDS011;22054;51.646;7.078;2022-10-16T02:37:42;10.98;;;10.23;;
35612;SDS011;22054;51.646;7.078;2022-10-16T02:40:09;14.32;;;9.90;;
35612;SDS011;22054;51.646;7.078;2022-10-16T02:42:37;10.98;;;9.95;;
35612;SDS011;22054;51.646;7.078;2022-10-16T02:47:36;9.93;;;9.40;;
35612;SDS011;22054;51.646;7.078;2022-10-16T02:50:02;10.52;;;9.82;;
35612;SDS011;22054;51.646;7.078;2022-10-16T02:52:37;10.27;;;9.35;;
35612;SDS011;22054;51.646;7.078;2022-10-16T02:55:03;9.68;;;8.98;;
35612;SDS011;22054;51.646;7.078;2022-10-16T02:57:29;10.43;;;9.60;;
35612;SDS011;22054;51.646;7.078;2022-10-16T02:59:56;9.65;;;8.90;;
35612;SDS011;22054;51.646;7.078;2022-10-16T03:02:21;9.32;;;8.73;;
35612;SDS011;22054;51.646;7.078;2022-10-16T03:04:47;9.60;;;8.90;;
35612;SDS011;22054;51.646;7.078;2022-10-16T03:07:13;9.98;;;8.98;;
35612;SDS011;22054;51.646;7.078;2022-10-16T03:09:39;9.32;;;8.63;;
35612;SDS011;22054;51.646;7.078;2022-10-16T03:12:04;8.52;;;8.02;;
35612;SDS011;22054;51.646;7.078;2022-10-16T03:14:30;9.25;;;8.65;;
35612;SDS011;22054;51.646;7.078;2022-10-16T03:16:56;9.43;;;8.73;;
35612;SDS011;22054;51.646;7.078;2022-10-16T03:19:21;9.00;;;8.30;;
35612;SDS011;22054;51.646;7.078;2022-10-16T03:21:47;9.18;;;8.50;;
35612;SDS011;22054;51.646;7.078;2022-10-16T03:24:13;9.02;;;8.43;;
35612;SDS011;22054;51.646;7.078;2022-10-16T03:26:39;9.75;;;9.02;;
35612;SDS011;22054;51.646;7.078;2022-10-16T03:29:04;8.98;;;8.20;;
35612;SDS011;22054;51.646;7.078;2022-10-16T03:31:31;9.15;;;8.55;;
35612;SDS011;22054;51.646;7.078;2022-10-16T03:33:57;8.95;;;8.32;;
35612;SDS011;22054;51.646;7.078;2022-10-16T03:36:23;9.60;;;8.90;;
35612;SDS011;22054;51.646;7.078;2022-10-16T03:38:50;8.73;;;8.18;;
35612;SDS011;22054;51.646;7.078;2022-10-16T03:41:16;9.75;;;8.93;;
35612;SDS011;22054;51.646;7.078;2022-10-16T03:43:41;10.07;;;9.20;;
35612;SDS011;22054;51.646;7.078;2022-10-16T03:46:07;9.60;;;9.02;;
35612;SDS011;22054;51.646;7.078;2022-10-16T03:48:34;9.10;;;8.50;;
35612;SDS011;22054;51.646;7.078;2022-10-16T03:51:00;8.98;;;8.48;;
35612;SDS011;22054;51.646;7.078;2022-10-16T03:53:25;8.82;;;8.27;;
35612;SDS011;22054;51.646;7.078;2022-10-16T03:55:52;8.68;;;8.10;;
35612;SDS011;22054;51.646;7.078;2022-10-16T03:58:18;11.43;;;8.52;;
35612;SDS011;22054;51.646;7.078;2022-10-16T04:00:45;10.93;;;8.52;;
35612;SDS011;22054;51.646;7.078;2022-10-16T04:03:12;9.50;;;8.80;;
35612;SDS011;22054;51.646;7.078;2022-10-16T04:05:38;8.93;;;8.23;;
35612;SDS011;22054;51.646;7.078;2022-10-16T04:08:04;10.23;;;9.43;;
35612;SDS011;22054;51.646;7.078;2022-10-16T04:10:30;9.75;;;8.70;;
35612;SDS011;22054;51.646;7.078;2022-10-16T04:12:56;9.20;;;8.70;;
35612;SDS011;22054;51.646;7.078;2022-10-16T04:15:23;9.55;;;8.85;;
35612;SDS011;22054;51.646;7.078;2022-10-16T04:17:49;9.20;;;8.50;;
35612;SDS011;22054;51.646;7.078;2022-10-16T04:20:17;9.40;;;8.80;;
35612;SDS011;22054;51.646;7.078;2022-10-16T04:22:43;8.70;;;8.10;;
35612;SDS011;22054;51.646;7.078;2022-10-16T04:25:09;8.43;;;7.82;;
35612;SDS011;22054;51.646;7.078;2022-10-16T04:27:36;8.77;;;8.10;;
35612;SDS011;22054;51.646;7.078;2022-10-16T04:30:03;9.73;;;7.95;;
35612;SDS011;22054;51.646;7.078;2022-10-16T04:34:58;8.65;;;8.15;;
35612;SDS011;22054;51.646;7.078;2022-10-16T04:37:25;8.32;;;7.70;;
35612;SDS011;22054;51.646;7.078;2022-10-16T04:39:57;9.93;;;9.13;;
35612;SDS011;22054;51.646;7.078;2022-10-16T04:42:23;8.73;;;7.93;;
35612;SDS011;22054;51.646;7.078;2022-10-16T04:44:49;9.43;;;8.77;;
35612;SDS011;22054;51.646;7.078;2022-10-16T04:47:15;12.57;;;8.70;;
35612;SDS011;22054;51.646;7.078;2022-10-16T04:49:40;9.60;;;8.90;;
35612;SDS011;22054;51.646;7.078;2022-10-16T04:52:08;8.55;;;7.95;;
35612;SDS011;22054;51.646;7.078;2022-10-16T04:54:40;8.60;;;8.10;;
35612;SDS011;22054;51.646;7.078;2022-10-16T04:57:07;9.13;;;8.52;;
35612;SDS011;22054;51.646;7.078;2022-10-16T04:59:33;9.30;;;8.70;;
35612;SDS011;22054;51.646;7.078;2022-10-16T05:01:59;8.73;;;8.23;;
35612;SDS011;22054;51.646;7.078;2022-10-16T05:04:24;8.77;;;8.07;;
35612;SDS011;22054;51.646;7.078;2022-10-16T05:06:50;8.75;;;7.97;;
35612;SDS011;22054;51.646;7.078;2022-10-16T05:09:16;8.40;;;7.80;;
35612;SDS011;22054;51.646;7.078;2022-10-16T05:11:42;8.48;;;7.97;;
35612;SDS011;22054;51.646;7.078;2022-10-16T05:14:07;8.10;;;7.47;;
35612;SDS011;22054;51.646;7.078;2022-10-16T05:16:33;9.73;;;8.93;;
35612;SDS011;22054;51.646;7.078;2022-10-16T05:18:59;8.70;;;8.20;;
35612;SDS011;22054;51.646;7.078;2022-10-16T05:21:25;8.60;;;7.60;;
35612;SDS011;22054;51.646;7.078;2022-10-16T05:23:50;8.70;;;7.95;;
35612;SDS011;22054;51.646;7.078;2022-10-16T05:26:19;9.35;;;8.68;;
35612;SDS011;22054;51.646;7.078;2022-10-16T05:28:45;9.23;;;8.43;;
35612;SDS011;22054;51.646;7.078;2022-10-16T05:31:13;8.02;;;7.43;;
35612;SDS011;22054;51.646;7.078;2022-10-16T05:33:39;8.82;;;8.32;;
35612;SDS011;22054;51.646;7.078;2022-10-16T05:36:06;9.60;;;8.85;;
35612;SDS011;22054;51.646;7.078;2022-10-16T05:38:34;8.68;;;8.05;;
35612;SDS011;22054;51.646;7.078;2022-10-16T05:41:00;8.32;;;7.80;;
35612;SDS011;22054;51.646;7.078;2022-10-16T05:43:39;9.27;;;8.48;;
35612;SDS011;22054;51.646;7.078;2022-10-16T05:46:05;8.85;;;8.25;;
35612;SDS011;22054;51.646;7.078;2022-10-16T05:48:31;8.88;;;8.13;;
35612;SDS011;22054;51.646;7.078;2022-10-16T05:53:48;8.90;;;8.20;;
35612;SDS011;22054;51.646;7.078;2022-10-16T05:56:14;8.80;;;8.00;;
35612;SDS011;22054;51.646;7.078;2022-10-16T05:58:40;8.93;;;8.43;;
35612;SDS011;22054;51.646;7.078;2022-10-16T06:01:11;9.35;;;8.75;;
35612;SDS011;22054;51.646;7.078;2022-10-16T06:03:40;8.48;;;8.05;;
35612;SDS011;22054;51.646;7.078;2022-10-16T06:06:16;12.75;;;8.38;;
35612;SDS011;22054;51.646;7.078;2022-10-16T06:08:45;9.35;;;8.75;;
35612;SDS011;22054;51.646;7.078;2022-10-16T06:11:16;10.25;;;8.80;;
35612;SDS011;22054;51.646;7.078;2022-10-16T06:13:45;9.90;;;9.20;;
35612;SDS011;22054;51.646;7.078;2022-10-16T06:16:15;8.45;;;8.05;;
35612;SDS011;22054;51.646;7.078;2022-10-16T06:18:41;9.70;;;8.93;;
35612;SDS011;22054;51.646;7.078;2022-10-16T06:21:17;9.57;;;8.85;;
35612;SDS011;22054;51.646;7.078;2022-10-16T06:23:53;10.00;;;9.07;;
35612;SDS011;22054;51.646;7.078;2022-10-16T06:28:53;8.82;;;8.25;;
35612;SDS011;22054;51.646;7.078;2022-10-16T06:31:24;10.65;;;9.38;;
35612;SDS011;22054;51.646;7.078;2022-10-16T06:33:53;9.43;;;8.73;;
35612;SDS011;22054;51.646;7.078;2022-10-16T06:36:19;9.88;;;9.20;;
35612;SDS011;22054;51.646;7.078;2022-10-16T06:38:46;9.38;;;8.68;;
35612;SDS011;22054;51.646;7.078;2022-10-16T06:41:12;9.52;;;8.55;;
35612;SDS011;22054;51.646;7.078;2022-10-16T06:43:52;9.30;;;8.63;;
35612;SDS011;22054;51.646;7.078;2022-10-16T06:46:19;8.98;;;8.27;;
35612;SDS011;22054;51.646;7.078;2022-10-16T06:51:18;9.73;;;9.02;;
35612;SDS011;22054;51.646;7.078;2022-10-16T06:53:47;10.68;;;9.52;;
35612;SDS011;22054;51.646;7.078;2022-10-16T06:56:22;10.18;;;9.27;;
35612;SDS011;22054;51.646;7.078;2022-10-16T06:58:50;10.35;;;9.48;;
35612;SDS011;22054;51.646;7.078;2022-10-16T07:06:55;10.85;;;10.05;;
35612;SDS011;22054;51.646;7.078;2022-10-16T07:09:20;10.68;;;9.38;;
35612;SDS011;22054;51.646;7.078;2022-10-16T07:11:46;9.90;;;9.05;;
35612;SDS011;22054;51.646;7.078;2022-10-16T07:14:17;10.95;;;9.90;;
35612;SDS011;22054;51.646;7.078;2022-10-16T07:16:48;9.32;;;8.68;;
35612;SDS011;22054;51.646;7.078;2022-10-16T07:19:14;9.40;;;8.70;;
35612;SDS011;22054;51.646;7.078;2022-10-16T07:21:42;9.20;;;8.60;;
35612;SDS011;22054;51.646;7.078;2022-10-16T07:24:12;9.55;;;8.80;;
35612;SDS011;22054;51.646;7.078;2022-10-16T07:26:41;9.32;;;8.52;;
35612;SDS011;22054;51.646;7.078;2022-10-16T07:29:12;9.68;;;8.90;;
35612;SDS011;22054;51.646;7.078;2022-10-16T07:31:41;9.07;;;8.45;;
35612;SDS011;22054;51.646;7.078;2022-10-16T07:34:09;10.20;;;9.55;;
35612;SDS011;22054;51.646;7.078;2022-10-16T07:36:36;9.85;;;9.05;;
35612;SDS011;22054;51.646;7.078;2022-10-16T07:39:02;9.57;;;8.88;;
35612;SDS011;22054;51.646;7.078;2022-10-16T07:41:28;10.55;;;8.73;;
35612;SDS011;22054;51.646;7.078;2022-10-16T07:43:57;10.40;;;8.65;;
35612;SDS011;22054;51.646;7.078;2022-10-16T07:46:25;9.25;;;8.20;;
35612;SDS011;22054;51.646;7.078;2022-10-16T07:48:51;8.45;;;7.78;;
35612;SDS011;22054;51.646;7.078;2022-10-16T07:51:18;11.77;;;8.60;;
35612;SDS011;22054;51.646;7.078;2022-10-16T07:53:49;8.85;;;8.18;;
35612;SDS011;22054;51.646;7.078;2022-10-16T07:56:16;10.23;;;8.23;;
35612;SDS011;22054;51.646;7.078;2022-10-16T07:58:49;8.98;;;8.18;;
35612;SDS011;22054;51.646;7.078;2022-10-16T08:01:16;8.70;;;8.20;;
35612;SDS011;22054;51.646;7.078;2022-10-16T08:03:43;9.27;;;8.30;;
35612;SDS011;22054;51.646;7.078;2022-10-16T08:06:18;9.02;;;8.32;;
35612;SDS011;22054;51.646;7.078;2022-10-16T08:08:50;9.52;;;8.63;;
35612;SDS011;22054;51.646;7.078;2022-10-16T08:11:16;8.32;;;7.80;;
35612;SDS011;22054;51.646;7.078;2022-10-16T08:13:42;8.35;;;7.68;;
35612;SDS011;22054;51.646;7.078;2022-10-16T08:16:08;9.10;;;7.93;;
35612;SDS011;22054;51.646;7.078;2022-10-16T08:18:35;7.75;;;7.13;;
35612;SDS011;22054;51.646;7.078;2022-10-16T08:21:03;7.82;;;7.13;;
35612;SDS011;22054;51.646;7.078;2022-10-16T08:23:38;8.45;;;7.68;;
35612;SDS011;22054;51.646;7.078;2022-10-16T08:26:05;8.05;;;7.07;;
35612;SDS011;22054;51.646;7.078;2022-10-16T08:28:34;9.32;;;7.13;;
35612;SDS011;22054;51.646;7.078;2022-10-16T08:31:20;8.30;;;7.50;;
35612;SDS011;22054;51.646;7.078;2022-10-16T08:33:46;11.00;;;7.43;;
35612;SDS011;22054;51.646;7.078;2022-10-16T08:36:13;8.38;;;7.68;;
35612;SDS011;22054;51.646;7.078;2022-10-16T08:38:42;10.77;;;8.00;;
35612;SDS011;22054;51.646;7.078;2022-10-16T08:50:08;14.43;;;13.03;;
35612;SDS011;22054;51.646;7.078;2022-10-16T08:52:40;10.18;;;9.15;;
35612;SDS011;22054;51.646;7.078;2022-10-16T08:55:17;9.23;;;7.95;;
35612;SDS011;22054;51.646;7.078;2022-10-16T08:57:57;9.02;;;8.43;;
35612;SDS011;22054;51.646;7.078;2022-10-16T09:00:24;9.10;;;8.38;;
35612;SDS011;22054;51.646;7.078;2022-10-16T09:11:45;10.35;;;8.55;;
35612;SDS011;22054;51.646;7.078;2022-10-16T09:14:38;9.18;;;8.18;;
35612;SDS011;22054;51.646;7.078;2022-10-16T09:19:58;9.77;;;8.82;;
35612;SDS011;22054;51.646;7.078;2022-10-16T09:22:47;9.52;;;6.43;;
35612;SDS011;22054;51.646;7.078;2022-10-16T09:25:15;9.20;;;7.82;;
35612;SDS011;22054;51.646;7.078;2022-10-16T09:27:44;8.52;;;7.72;;
35612;SDS011;22054;51.646;7.078;2022-10-16T09:30:14;8.50;;;7.72;;
35612;SDS011;22054;51.646;7.078;2022-10-16T09:32:44;12.40;;;7.00;;
35612;SDS011;22054;51.646;7.078;2022-10-16T09:35:22;6.93;;;6.47;;
35612;SDS011;22054;51.646;7.078;2022-10-16T09:37:55;7.45;;;6.85;;
35612;SDS011;22054;51.646;7.078;2022-10-16T09:40:28;7.93;;;7.20;;
35612;SDS011;22054;51.646;7.078;2022-10-16T09:48:50;7.55;;;6.95;;
35612;SDS011;22054;51.646;7.078;2022-10-16T09:55:19;7.60;;;7.10;;
35612;SDS011;22054;51.646;7.078;2022-10-16T09:57:51;7.90;;;7.40;;
35612;SDS011;22054;51.646;7.078;2022-10-16T10:00:18;7.70;;;7.10;;
35612;SDS011;22054;51.646;7.078;2022-10-16T10:02:46;6.70;;;6.07;;
35612;SDS011;22054;51.646;7.078;2022-10-16T10:05:25;7.20;;;6.40;;
35612;SDS011;22054;51.646;7.078;2022-10-16T10:07:58;6.95;;;6.30;;
35612;SDS011;22054;51.646;7.078;2022-10-16T10:10:41;6.70;;;6.20;;
35612;SDS011;22054;51.646;7.078;2022-10-16T10:13:21;7.00;;;6.32;;
35612;SDS011;22054;51.646;7.078;2022-10-16T10:15:50;7.10;;;6.47;;
35612;SDS011;22054;51.646;7.078;2022-10-16T10:18:20;6.90;;;6.22;;
35612;SDS011;22054;51.646;7.078;2022-10-16T10:20:59;6.55;;;6.05;;
35612;SDS011;22054;51.646;7.078;2022-10-16T10:23:27;6.00;;;5.40;;
35612;SDS011;22054;51.646;7.078;2022-10-16T10:26:10;5.80;;;5.40;;
35612;SDS011;22054;51.646;7.078;2022-10-16T10:32:01;6.15;;;5.30;;
35612;SDS011;22054;51.646;7.078;2022-10-16T10:43:57;5.85;;;5.50;;
35612;SDS011;22054;51.646;7.078;2022-10-16T10:46:50;6.10;;;5.70;;
35612;SDS011;22054;51.646;7.078;2022-10-16T10:55:39;6.85;;;6.35;;
35612;SDS011;22054;51.646;7.078;2022-10-16T11:06:30;7.03;;;6.32;;
35612;SDS011;22054;51.646;7.078;2022-10-16T11:17:50;6.22;;;5.82;;
35612;SDS011;22054;51.646;7.078;2022-10-16T11:20:32;5.95;;;5.63;;
35612;SDS011;22054;51.646;7.078;2022-10-16T11:25:56;6.63;;;5.80;;
35612;SDS011;22054;51.646;7.078;2022-10-16T11:28:31;6.43;;;5.90;;
35612;SDS011;22054;51.646;7.078;2022-10-16T11:31:32;6.20;;;5.80;;
35612;SDS011;22054;51.646;7.078;2022-10-16T11:40:29;6.75;;;6.25;;
35612;SDS011;22054;51.646;7.078;2022-10-16T11:46:04;6.53;;;6.13;;
35612;SDS011;22054;51.646;7.078;2022-10-16T11:55:40;7.10;;;6.32;;
35612;SDS011;22054;51.646;7.078;2022-10-16T12:03:36;9.20;;;6.70;;
35612;SDS011;22054;51.646;7.078;2022-10-16T12:09:26;6.72;;;6.20;;
35612;SDS011;22054;51.646;7.078;2022-10-16T12:11:55;6.75;;;6.15;;
35612;SDS011;22054;51.646;7.078;2022-10-16T12:23:06;7.05;;;6.65;;
35612;SDS011;22054;51.646;7.078;2022-10-16T12:25:54;6.63;;;6.13;;
35612;SDS011;22054;51.646;7.078;2022-10-16T12:28:26;6.53;;;6.13;;
35612;SDS011;22054;51.646;7.078;2022-10-16T12:35:56;9.98;;;6.00;;
35612;SDS011;22054;51.646;7.078;2022-10-16T12:38:38;8.05;;;7.32;;
35612;SDS011;22054;51.646;7.078;2022-10-16T12:44:04;6.78;;;6.28;;
35612;SDS011;22054;51.646;7.078;2022-10-16T12:46:45;6.32;;;5.93;;
35612;SDS011;22054;51.646;7.078;2022-10-16T12:51:37;6.78;;;6.18;;
35612;SDS011;22054;51.646;7.078;2022-10-16T12:54:12;7.55;;;6.82;;
35612;SDS011;22054;51.646;7.078;2022-10-16T12:56:55;6.85;;;6.25;;
35612;SDS011;22054;51.646;7.078;2022-10-16T13:14:21;6.65;;;6.20;;
35612;SDS011;22054;51.646;7.078;2022-10-16T13:17:42;6.70;;;6.13;;
35612;SDS011;22054;51.646;7.078;2022-10-16T13:20:44;6.70;;;6.05;;
35612;SDS011;22054;51.646;7.078;2022-10-16T13:27:09;6.30;;;5.90;;
35612;SDS011;22054;51.646;7.078;2022-10-16T13:32:47;6.50;;;6.00;;
35612;SDS011;22054;51.646;7.078;2022-10-16T13:35:24;6.45;;;5.90;;
35612;SDS011;22054;51.646;7.078;2022-10-16T13:38:13;6.18;;;5.40;;
35612;SDS011;22054;51.646;7.078;2022-10-16T13:40:56;6.30;;;5.70;;
35612;SDS011;22054;51.646;7.078;2022-10-16T13:43:29;7.15;;;5.68;;
35612;SDS011;22054;51.646;7.078;2022-10-16T13:46:01;5.68;;;5.25;;
35612;SDS011;22054;51.646;7.078;2022-10-16T13:48:31;5.60;;;5.10;;
35612;SDS011;22054;51.646;7.078;2022-10-16T13:50:59;6.10;;;5.55;;
35612;SDS011;22054;51.646;7.078;2022-10-16T13:53:38;6.72;;;5.78;;
35612;SDS011;22054;51.646;7.078;2022-10-16T13:56:06;8.07;;;5.88;;
35612;SDS011;22054;51.646;7.078;2022-10-16T13:58:36;6.70;;;6.03;;
35612;SDS011;22054;51.646;7.078;2022-10-16T14:01:05;6.30;;;5.70;;
35612;SDS011;22054;51.646;7.078;2022-10-16T14:04:05;6.88;;;6.28;;
35612;SDS011;22054;51.646;7.078;2022-10-16T14:10:25;6.63;;;6.13;;
35612;SDS011;22054;51.646;7.078;2022-10-16T14:16:22;6.78;;;6.10;;
35612;SDS011;22054;51.646;7.078;2022-10-16T14:18:57;7.32;;;6.65;;
35612;SDS011;22054;51.646;7.078;2022-10-16T14:21:30;6.90;;;6.28;;
35612;SDS011;22054;51.646;7.078;2022-10-16T14:23:57;6.82;;;6.22;;
35612;SDS011;22054;51.646;7.078;2022-10-16T14:26:23;6.00;;;5.53;;
35612;SDS011;22054;51.646;7.078;2022-10-16T14:29:10;6.35;;;5.80;;
35612;SDS011;22054;51.646;7.078;2022-10-16T14:31:40;6.35;;;5.85;;
35612;SDS011;22054;51.646;7.078;2022-10-16T14:34:23;6.57;;;5.97;;
35612;SDS011;22054;51.646;7.078;2022-10-16T14:36:58;6.63;;;6.10;;
35612;SDS011;22054;51.646;7.078;2022-10-16T14:39:49;9.18;;;6.60;;
35612;SDS011;22054;51.646;7.078;2022-10-16T14:42:16;6.30;;;5.90;;
35612;SDS011;22054;51.646;7.078;2022-10-16T14:44:45;6.80;;;6.15;;
35612;SDS011;22054;51.646;7.078;2022-10-16T14:47:19;7.30;;;6.60;;
35612;SDS011;22054;51.646;7.078;2022-10-16T14:49:50;7.82;;;6.20;;
35612;SDS011;22054;51.646;7.078;2022-10-16T14:52:17;7.28;;;6.45;;
35612;SDS011;22054;51.646;7.078;2022-10-16T14:54:43;7.13;;;6.57;;
35612;SDS011;22054;51.646;7.078;2022-10-16T14:57:17;7.85;;;7.13;;
35612;SDS011;22054;51.646;7.078;2022-10-16T14:59:45;6.72;;;6.22;;
35612;SDS011;22054;51.646;7.078;2022-10-16T15:02:17;6.40;;;6.00;;
35612;SDS011;22054;51.646;7.078;2022-10-16T15:05:10;7.75;;;6.47;;
35612;SDS011;22054;51.646;7.078;2022-10-16T15:07:40;6.85;;;6.20;;
35612;SDS011;22054;51.646;7.078;2022-10-16T15:10:06;6.72;;;6.32;;
35612;SDS011;22054;51.646;7.078;2022-10-16T15:12:32;6.10;;;5.70;;
35612;SDS011;22054;51.646;7.078;2022-10-16T15:14:58;9.88;;;6.40;;
35612;SDS011;22054;51.646;7.078;2022-10-16T15:17:24;8.20;;;6.38;;
35612;SDS011;22054;51.646;7.078;2022-10-16T15:19:50;7.30;;;6.60;;
35612;SDS011;22054;51.646;7.078;2022-10-16T15:22:16;7.00;;;6.30;;
35612;SDS011;22054;51.646;7.078;2022-10-16T15:24:42;7.03;;;6.47;;
35612;SDS011;22054;51.646;7.078;2022-10-16T15:27:08;6.68;;;6.07;;
35612;SDS011;22054;51.646;7.078;2022-10-16T15:29:34;6.97;;;6.40;;
35612;SDS011;22054;51.646;7.078;2022-10-16T15:32:00;7.15;;;6.40;;
35612;SDS011;22054;51.646;7.078;2022-10-16T15:34:25;8.05;;;6.78;;
35612;SDS011;22054;51.646;7.078;2022-10-16T15:36:51;7.32;;;6.72;;
35612;SDS011;22054;51.646;7.078;2022-10-16T15:39:18;6.60;;;6.13;;
35612;SDS011;22054;51.646;7.078;2022-10-16T15:41:45;6.47;;;5.95;;
35612;SDS011;22054;51.646;7.078;2022-10-16T15:44:19;7.22;;;6.63;;
35612;SDS011;22054;51.646;7.078;2022-10-16T15:46:47;6.80;;;6.30;;
35612;SDS011;22054;51.646;7.078;2022-10-16T15:49:14;6.82;;;6.32;;
35612;SDS011;22054;51.646;7.078;2022-10-16T15:51:41;9.35;;;7.30;;
35612;SDS011;22054;51.646;7.078;2022-10-16T15:54:07;8.98;;;8.25;;
35612;SDS011;22054;51.646;7.078;2022-10-16T15:56:34;8.18;;;7.43;;
35612;SDS011;22054;51.646;7.078;2022-10-16T15:59:01;7.80;;;7.18;;
35612;SDS011;22054;51.646;7.078;2022-10-16T16:01:28;8.45;;;7.85;;
35612;SDS011;22054;51.646;7.078;2022-10-16T16:04:00;8.10;;;6.28;;
35612;SDS011;22054;51.646;7.078;2022-10-16T16:06:26;7.60;;;6.80;;
35612;SDS011;22054;51.646;7.078;2022-10-16T16:08:52;6.50;;;6.00;;
35612;SDS011;22054;51.646;7.078;2022-10-16T16:11:18;6.50;;;5.90;;
35612;SDS011;22054;51.646;7.078;2022-10-16T16:13:45;6.03;;;5.57;;
35612;SDS011;22054;51.646;7.078;2022-10-16T16:16:15;6.38;;;5.72;;
35612;SDS011;22054;51.646;7.078;2022-10-16T16:18:42;10.40;;;7.35;;
35612;SDS011;22054;51.646;7.078;2022-10-16T16:21:09;6.85;;;6.28;;
35612;SDS011;22054;51.646;7.078;2022-10-16T16:23:36;6.75;;;6.03;;
35612;SDS011;22054;51.646;7.078;2022-10-16T16:29:04;10.18;;;7.18;;
35612;SDS011;22054;51.646;7.078;2022-10-16T16:31:30;12.50;;;7.40;;
35612;SDS011;22054;51.646;7.078;2022-10-16T16:33:58;9.40;;;7.05;;
35612;SDS011;22054;51.646;7.078;2022-10-16T16:36:24;8.15;;;7.35;;
35612;SDS011;22054;51.646;7.078;2022-10-16T16:38:50;7.40;;;6.70;;
35612;SDS011;22054;51.646;7.078;2022-10-16T16:41:17;9.05;;;6.80;;
35612;SDS011;22054;51.646;7.078;2022-10-16T16:43:50;8.40;;;7.18;;
35612;SDS011;22054;51.646;7.078;2022-10-16T16:46:16;8.15;;;7.18;;
35612;SDS011;22054;51.646;7.078;2022-10-16T16:48:43;10.55;;;8.35;;
35612;SDS011;22054;51.646;7.078;2022-10-16T16:51:13;10.13;;;9.10;;
35612;SDS011;22054;51.646;7.078;2022-10-16T16:53:43;10.68;;;9.43;;
35612;SDS011;22054;51.646;7.078;2022-10-16T16:56:11;11.68;;;9.13;;
35612;SDS011;22054;51.646;7.078;2022-10-16T16:58:37;13.98;;;9.10;;
35612;SDS011;22054;51.646;7.078;2022-10-16T17:01:03;11.45;;;9.68;;
35612;SDS011;22054;51.646;7.078;2022-10-16T17:03:31;9.88;;;8.55;;
35612;SDS011;22054;51.646;7.078;2022-10-16T17:06:09;11.57;;;10.07;;
35612;SDS011;22054;51.646;7.078;2022-10-16T17:08:42;12.25;;;11.00;;
35612;SDS011;22054;51.646;7.078;2022-10-16T17:11:12;12.45;;;11.05;;
35612;SDS011;22054;51.646;7.078;2022-10-16T17:13:47;11.73;;;10.60;;
35612;SDS011;22054;51.646;7.078;2022-10-16T17:16:14;10.57;;;9.50;;
35612;SDS011;22054;51.646;7.078;2022-10-16T17:18:40;10.60;;;9.75;;
35612;SDS011;22054;51.646;7.078;2022-10-16T17:21:07;12.60;;;11.15;;
35612;SDS011;22054;51.646;7.078;2022-10-16T17:23:35;11.73;;;10.65;;
35612;SDS011;22054;51.646;7.078;2022-10-16T17:26:03;10.57;;;9.40;;
35612;SDS011;22054;51.646;7.078;2022-10-16T17:28:40;10.95;;;9.88;;
35612;SDS011;22054;51.646;7.078;2022-10-16T17:31:13;11.45;;;10.45;;
35612;SDS011;22054;51.646;7.078;2022-10-16T17:33:40;12.88;;;9.70;;
35612;SDS011;22054;51.646;7.078;2022-10-16T17:36:08;11.07;;;9.70;;
35612;SDS011;22054;51.646;7.078;2022-10-16T17:38:35;10.45;;;9.30;;
35612;SDS011;22054;51.646;7.078;2022-10-16T17:41:11;9.48;;;8.63;;
35612;SDS011;22054;51.646;7.078;2022-10-16T17:43:43;10.38;;;9.23;;
35612;SDS011;22054;51.646;7.078;2022-10-16T17:46:09;11.90;;;8.43;;
35612;SDS011;22054;51.646;7.078;2022-10-16T17:48:40;10.98;;;8.85;;
35612;SDS011;22054;51.646;7.078;2022-10-16T17:51:09;9.65;;;8.65;;
35612;SDS011;22054;51.646;7.078;2022-10-16T17:53:41;9.50;;;8.70;;
35612;SDS011;22054;51.646;7.078;2022-10-16T17:56:09;10.05;;;8.93;;
35612;SDS011;22054;51.646;7.078;2022-10-16T17:58:37;10.32;;;9.52;;